sensor_id;sensor_type;location;lat;lon;timestamp;temperature;humidity
51305;HTU21D;37392;50.964;6.952;2024-03-22T00:00:43;10.70;106.43
51305;HTU21D;37392;50.964;6.952;2024-03-22T00:03:09;10.71;106.40
51305;HTU21D;37392;50.964;6.952;2024-03-22T00:05:34;10.69;106.47
51305;HTU21D;37392;50.964;6.952;2024-03-22T00:08:00;10.70;106.57
51305;HTU21D;37392;50.964;6.952;2024-03-22T00:10:26;10.70;106.70
51305;HTU21D;37392;50.964;6.952;2024-03-22T00:12:51;10.66;106.82
51305;HTU21D;37392;50.964;6.952;2024-03-22T00:15:17;10.64;107.01
51305;HTU21D;37392;50.964;6.952;2024-03-22T00:17:44;10.60;107.26
51305;HTU21D;37392;50.964;6.952;2024-03-22T00:20:10;10.60;107.37
51305;HTU21D;37392;50.964;6.952;2024-03-22T00:22:35;10.60;107.46
51305;HTU21D;37392;50.964;6.952;2024-03-22T00:25:01;10.58;107.50
51305;HTU21D;37392;50.964;6.952;2024-03-22T00:27:26;10.53;107.54
51305;HTU21D;37392;50.964;6.952;2024-03-22T00:29:52;10.54;107.86
51305;HTU21D;37392;50.964;6.952;2024-03-22T00:32:17;10.54;107.95
51305;HTU21D;37392;50.964;6.952;2024-03-22T00:34:43;10.53;108.01
51305;HTU21D;37392;50.964;6.952;2024-03-22T00:37:09;10.51;108.05
51305;HTU21D;37392;50.964;6.952;2024-03-22T00:39:34;10.49;108.08
51305;HTU21D;37392;50.964;6.952;2024-03-22T00:42:00;10.50;108.10
51305;HTU21D;37392;50.964;6.952;2024-03-22T00:44:26;10.52;108.20
51305;HTU21D;37392;50.964;6.952;2024-03-22T00:46:52;10.53;108.05
51305;HTU21D;37392;50.964;6.952;2024-03-22T00:49:17;10.50;107.98
51305;HTU21D;37392;50.964;6.952;2024-03-22T00:51:43;10.55;108.10
51305;HTU21D;37392;50.964;6.952;2024-03-22T00:54:09;10.55;108.01
51305;HTU21D;37392;50.964;6.952;2024-03-22T00:56:36;10.53;108.08
51305;HTU21D;37392;50.964;6.952;2024-03-22T00:59:01;10.53;108.24
51305;HTU21D;37392;50.964;6.952;2024-03-22T01:01:27;10.54;108.24
51305;HTU21D;37392;50.964;6.952;2024-03-22T01:03:52;10.52;108.24
51305;HTU21D;37392;50.964;6.952;2024-03-22T01:06:18;10.51;108.23
51305;HTU21D;37392;50.964;6.952;2024-03-22T01:08:48;10.48;108.26
51305;HTU21D;37392;50.964;6.952;2024-03-22T01:11:14;10.45;108.39
51305;HTU21D;37392;50.964;6.952;2024-03-22T01:13:39;10.45;108.30
51305;HTU21D;37392;50.964;6.952;2024-03-22T01:16:05;10.46;108.20
51305;HTU21D;37392;50.964;6.952;2024-03-22T01:18:30;10.45;108.26
51305;HTU21D;37392;50.964;6.952;2024-03-22T01:20:56;10.42;108.32
51305;HTU21D;37392;50.964;6.952;2024-03-22T01:23:21;10.42;108.32
51305;HTU21D;37392;50.964;6.952;2024-03-22T01:25:47;10.43;108.32
51305;HTU21D;37392;50.964;6.952;2024-03-22T01:28:12;10.42;108.26
51305;HTU21D;37392;50.964;6.952;2024-03-22T01:30:38;10.44;108.08
51305;HTU21D;37392;50.964;6.952;2024-03-22T01:33:03;10.44;108.12
51305;HTU21D;37392;50.964;6.952;2024-03-22T01:35:29;10.44;108.04
51305;HTU21D;37392;50.964;6.952;2024-03-22T01:37:54;10.39;108.14
51305;HTU21D;37392;50.964;6.952;2024-03-22T01:40:20;10.41;108.20
51305;HTU21D;37392;50.964;6.952;2024-03-22T01:42:45;10.38;108.23
51305;HTU21D;37392;50.964;6.952;2024-03-22T01:45:13;10.39;108.27
51305;HTU21D;37392;50.964;6.952;2024-03-22T01:47:39;10.38;108.18
51305;HTU21D;37392;50.964;6.952;2024-03-22T01:50:06;10.42;108.12
51305;HTU21D;37392;50.964;6.952;2024-03-22T01:52:33;10.46;108.07
51305;HTU21D;37392;50.964;6.952;2024-03-22T01:54:58;10.43;107.90
51305;HTU21D;37392;50.964;6.952;2024-03-22T01:57:24;10.45;107.78
51305;HTU21D;37392;50.964;6.952;2024-03-22T01:59:51;10.43;107.77
51305;HTU21D;37392;50.964;6.952;2024-03-22T02:02:19;10.42;107.83
51305;HTU21D;37392;50.964;6.952;2024-03-22T02:04:44;10.35;108.03
51305;HTU21D;37392;50.964;6.952;2024-03-22T02:07:10;10.30;108.30
51305;HTU21D;37392;50.964;6.952;2024-03-22T02:09:35;10.33;108.52
51305;HTU21D;37392;50.964;6.952;2024-03-22T02:12:02;10.28;108.56
51305;HTU21D;37392;50.964;6.952;2024-03-22T02:14:28;10.28;108.73
51305;HTU21D;37392;50.964;6.952;2024-03-22T02:16:53;10.28;108.80
51305;HTU21D;37392;50.964;6.952;2024-03-22T02:19:19;10.26;108.85
51305;HTU21D;37392;50.964;6.952;2024-03-22T02:21:44;10.27;108.80
51305;HTU21D;37392;50.964;6.952;2024-03-22T02:24:10;10.34;108.65
51305;HTU21D;37392;50.964;6.952;2024-03-22T02:26:35;10.36;108.40
51305;HTU21D;37392;50.964;6.952;2024-03-22T02:29:01;10.37;108.15
51305;HTU21D;37392;50.964;6.952;2024-03-22T02:31:26;10.40;108.11
51305;HTU21D;37392;50.964;6.952;2024-03-22T02:33:52;10.41;107.92
51305;HTU21D;37392;50.964;6.952;2024-03-22T02:36:17;10.42;107.71
51305;HTU21D;37392;50.964;6.952;2024-03-22T02:38:43;10.44;107.55
51305;HTU21D;37392;50.964;6.952;2024-03-22T02:41:08;10.46;107.54
51305;HTU21D;37392;50.964;6.952;2024-03-22T02:43:34;10.45;107.43
51305;HTU21D;37392;50.964;6.952;2024-03-22T02:45:59;10.46;107.36
51305;HTU21D;37392;50.964;6.952;2024-03-22T02:48:25;10.51;107.36
51305;HTU21D;37392;50.964;6.952;2024-03-22T02:50:55;10.51;107.27
51305;HTU21D;37392;50.964;6.952;2024-03-22T02:53:21;10.52;107.14
51305;HTU21D;37392;50.964;6.952;2024-03-22T02:55:46;10.54;106.92
51305;HTU21D;37392;50.964;6.952;2024-03-22T02:58:12;10.54;106.91
51305;HTU21D;37392;50.964;6.952;2024-03-22T03:00:38;10.58;106.95
51305;HTU21D;37392;50.964;6.952;2024-03-22T03:03:07;10.57;107.01
51305;HTU21D;37392;50.964;6.952;2024-03-22T03:05:33;10.59;107.08
51305;HTU21D;37392;50.964;6.952;2024-03-22T03:08:00;10.58;107.11
51305;HTU21D;37392;50.964;6.952;2024-03-22T03:10:26;10.65;107.15
51305;HTU21D;37392;50.964;6.952;2024-03-22T03:12:54;10.65;107.06
51305;HTU21D;37392;50.964;6.952;2024-03-22T03:15:19;10.64;107.03
51305;HTU21D;37392;50.964;6.952;2024-03-22T03:17:45;10.66;107.22
51305;HTU21D;37392;50.964;6.952;2024-03-22T03:20:11;10.65;107.90
51305;HTU21D;37392;50.964;6.952;2024-03-22T03:22:41;10.67;109.36
51305;HTU21D;37392;50.964;6.952;2024-03-22T03:25:07;10.57;110.80
51305;HTU21D;37392;50.964;6.952;2024-03-22T03:27:33;10.53;111.53
51305;HTU21D;37392;50.964;6.952;2024-03-22T03:29:59;10.48;111.82
51305;HTU21D;37392;50.964;6.952;2024-03-22T03:32:24;10.41;112.40
51305;HTU21D;37392;50.964;6.952;2024-03-22T03:34:50;10.38;112.39
51305;HTU21D;37392;50.964;6.952;2024-03-22T03:37:16;10.40;112.37
51305;HTU21D;37392;50.964;6.952;2024-03-22T03:39:42;10.39;112.37
51305;HTU21D;37392;50.964;6.952;2024-03-22T03:42:07;10.41;111.71
51305;HTU21D;37392;50.964;6.952;2024-03-22T03:44:32;10.40;111.84
51305;HTU21D;37392;50.964;6.952;2024-03-22T03:47:00;10.42;111.78
51305;HTU21D;37392;50.964;6.952;2024-03-22T03:49:26;10.41;111.55
51305;HTU21D;37392;50.964;6.952;2024-03-22T03:51:52;10.42;111.10
51305;HTU21D;37392;50.964;6.952;2024-03-22T03:54:17;10.42;110.84
51305;HTU21D;37392;50.964;6.952;2024-03-22T03:56:43;10.44;110.72
51305;HTU21D;37392;50.964;6.952;2024-03-22T03:59:08;10.41;110.36
51305;HTU21D;37392;50.964;6.952;2024-03-22T04:01:34;10.36;110.55
51305;HTU21D;37392;50.964;6.952;2024-03-22T04:03:59;10.36;110.58
51305;HTU21D;37392;50.964;6.952;2024-03-22T04:06:25;10.39;110.49
51305;HTU21D;37392;50.964;6.952;2024-03-22T04:08:50;10.42;110.36
51305;HTU21D;37392;50.964;6.952;2024-03-22T04:11:16;10.44;110.31
51305;HTU21D;37392;50.964;6.952;2024-03-22T04:13:41;10.46;110.07
51305;HTU21D;37392;50.964;6.952;2024-03-22T04:16:07;10.42;110.10
51305;HTU21D;37392;50.964;6.952;2024-03-22T04:18:32;10.36;110.34
51305;HTU21D;37392;50.964;6.952;2024-03-22T04:20:59;10.25;110.71
51305;HTU21D;37392;50.964;6.952;2024-03-22T04:23:25;10.20;111.20
51305;HTU21D;37392;50.964;6.952;2024-03-22T04:25:59;10.16;111.43
51305;HTU21D;37392;50.964;6.952;2024-03-22T04:28:28;10.10;111.91
51305;HTU21D;37392;50.964;6.952;2024-03-22T04:31:01;9.98;112.35
51305;HTU21D;37392;50.964;6.952;2024-03-22T04:33:29;9.95;112.72
51305;HTU21D;37392;50.964;6.952;2024-03-22T04:35:56;9.96;112.93
51305;HTU21D;37392;50.964;6.952;2024-03-22T04:38:22;9.92;113.29
51305;HTU21D;37392;50.964;6.952;2024-03-22T04:40:49;9.89;113.41
51305;HTU21D;37392;50.964;6.952;2024-03-22T04:43:15;9.89;113.59
51305;HTU21D;37392;50.964;6.952;2024-03-22T04:45:44;9.91;113.62
51305;HTU21D;37392;50.964;6.952;2024-03-22T04:48:12;9.89;113.66
51305;HTU21D;37392;50.964;6.952;2024-03-22T04:50:46;9.90;113.80
51305;HTU21D;37392;50.964;6.952;2024-03-22T04:53:15;9.93;113.71
51305;HTU21D;37392;50.964;6.952;2024-03-22T04:55:44;9.93;113.75
51305;HTU21D;37392;50.964;6.952;2024-03-22T04:58:18;9.94;113.77
51305;HTU21D;37392;50.964;6.952;2024-03-22T05:00:46;10.01;113.54
51305;HTU21D;37392;50.964;6.952;2024-03-22T05:03:15;10.09;113.23
51305;HTU21D;37392;50.964;6.952;2024-03-22T05:05:42;10.12;112.97
51305;HTU21D;37392;50.964;6.952;2024-03-22T05:08:08;10.16;112.84
51305;HTU21D;37392;50.964;6.952;2024-03-22T05:10:34;10.18;112.67
51305;HTU21D;37392;50.964;6.952;2024-03-22T05:12:59;10.21;112.74
51305;HTU21D;37392;50.964;6.952;2024-03-22T05:15:25;10.24;112.58
51305;HTU21D;37392;50.964;6.952;2024-03-22T05:17:52;10.23;112.55
51305;HTU21D;37392;50.964;6.952;2024-03-22T05:20:18;10.23;112.60
51305;HTU21D;37392;50.964;6.952;2024-03-22T05:22:44;10.24;112.74
51305;HTU21D;37392;50.964;6.952;2024-03-22T05:25:10;10.29;112.61
51305;HTU21D;37392;50.964;6.952;2024-03-22T05:27:35;10.31;112.45
51305;HTU21D;37392;50.964;6.952;2024-03-22T05:30:02;10.31;112.36
51305;HTU21D;37392;50.964;6.952;2024-03-22T05:32:30;10.35;112.23
51305;HTU21D;37392;50.964;6.952;2024-03-22T05:34:56;10.35;112.25
51305;HTU21D;37392;50.964;6.952;2024-03-22T05:37:21;10.38;112.12
51305;HTU21D;37392;50.964;6.952;2024-03-22T05:39:47;10.39;112.05
51305;HTU21D;37392;50.964;6.952;2024-03-22T05:42:13;10.43;112.00
51305;HTU21D;37392;50.964;6.952;2024-03-22T05:44:38;10.43;111.93
51305;HTU21D;37392;50.964;6.952;2024-03-22T05:47:04;10.44;112.00
51305;HTU21D;37392;50.964;6.952;2024-03-22T05:49:29;10.49;111.91
51305;HTU21D;37392;50.964;6.952;2024-03-22T05:51:55;10.53;111.82
51305;HTU21D;37392;50.964;6.952;2024-03-22T05:54:21;10.62;111.55
51305;HTU21D;37392;50.964;6.952;2024-03-22T05:56:46;10.67;111.23
51305;HTU21D;37392;50.964;6.952;2024-03-22T05:59:12;10.68;111.06
51305;HTU21D;37392;50.964;6.952;2024-03-22T06:01:37;10.78;110.61
51305;HTU21D;37392;50.964;6.952;2024-03-22T06:04:04;10.84;110.17
51305;HTU21D;37392;50.964;6.952;2024-03-22T06:06:31;10.93;109.87
51305;HTU21D;37392;50.964;6.952;2024-03-22T06:08:59;10.98;109.62
51305;HTU21D;37392;50.964;6.952;2024-03-22T06:11:28;11.08;109.10
51305;HTU21D;37392;50.964;6.952;2024-03-22T06:13:53;11.14;108.69
51305;HTU21D;37392;50.964;6.952;2024-03-22T06:16:19;11.20;108.43
51305;HTU21D;37392;50.964;6.952;2024-03-22T06:18:45;11.29;108.04
51305;HTU21D;37392;50.964;6.952;2024-03-22T06:21:10;11.32;107.74
51305;HTU21D;37392;50.964;6.952;2024-03-22T06:23:36;11.37;107.25
51305;HTU21D;37392;50.964;6.952;2024-03-22T06:26:01;11.43;106.95
51305;HTU21D;37392;50.964;6.952;2024-03-22T06:28:28;11.47;106.82
51305;HTU21D;37392;50.964;6.952;2024-03-22T06:30:54;11.52;106.61
51305;HTU21D;37392;50.964;6.952;2024-03-22T06:33:20;11.56;106.43
51305;HTU21D;37392;50.964;6.952;2024-03-22T06:35:46;11.56;106.21
51305;HTU21D;37392;50.964;6.952;2024-03-22T06:38:12;11.57;106.21
51305;HTU21D;37392;50.964;6.952;2024-03-22T06:40:38;11.61;106.04
51305;HTU21D;37392;50.964;6.952;2024-03-22T06:43:03;11.64;105.83
51305;HTU21D;37392;50.964;6.952;2024-03-22T06:45:29;11.68;105.42
51305;HTU21D;37392;50.964;6.952;2024-03-22T06:47:55;11.74;105.36
51305;HTU21D;37392;50.964;6.952;2024-03-22T06:50:21;11.87;105.07
51305;HTU21D;37392;50.964;6.952;2024-03-22T06:52:55;12.06;104.57
51305;HTU21D;37392;50.964;6.952;2024-03-22T06:55:21;12.32;104.00
51305;HTU21D;37392;50.964;6.952;2024-03-22T06:57:50;12.64;102.80
51305;HTU21D;37392;50.964;6.952;2024-03-22T07:00:16;13.03;101.08
51305;HTU21D;37392;50.964;6.952;2024-03-22T07:02:43;13.39;99.03
51305;HTU21D;37392;50.964;6.952;2024-03-22T07:05:09;13.86;96.77
51305;HTU21D;37392;50.964;6.952;2024-03-22T07:07:35;14.41;94.62
51305;HTU21D;37392;50.964;6.952;2024-03-22T07:10:02;14.82;91.39
51305;HTU21D;37392;50.964;6.952;2024-03-22T07:12:28;14.98;90.51
51305;HTU21D;37392;50.964;6.952;2024-03-22T07:14:55;14.84;90.03
51305;HTU21D;37392;50.964;6.952;2024-03-22T07:17:21;14.72;90.08
51305;HTU21D;37392;50.964;6.952;2024-03-22T07:19:53;14.75;90.20
51305;HTU21D;37392;50.964;6.952;2024-03-22T07:22:19;14.91;89.83
51305;HTU21D;37392;50.964;6.952;2024-03-22T07:24:46;14.86;89.46
51305;HTU21D;37392;50.964;6.952;2024-03-22T07:27:12;15.01;88.91
51305;HTU21D;37392;50.964;6.952;2024-03-22T07:29:39;14.98;88.51
51305;HTU21D;37392;50.964;6.952;2024-03-22T07:32:05;15.09;88.43
51305;HTU21D;37392;50.964;6.952;2024-03-22T07:34:31;15.18;88.04
51305;HTU21D;37392;50.964;6.952;2024-03-22T07:36:56;15.08;88.22
51305;HTU21D;37392;50.964;6.952;2024-03-22T07:39:22;15.14;88.11
51305;HTU21D;37392;50.964;6.952;2024-03-22T07:41:49;15.25;87.81
51305;HTU21D;37392;50.964;6.952;2024-03-22T07:44:15;15.32;87.61
51305;HTU21D;37392;50.964;6.952;2024-03-22T07:46:43;15.48;87.25
51305;HTU21D;37392;50.964;6.952;2024-03-22T07:49:10;15.69;86.47
51305;HTU21D;37392;50.964;6.952;2024-03-22T07:51:36;16.18;85.32
51305;HTU21D;37392;50.964;6.952;2024-03-22T07:54:02;16.76;83.00
51305;HTU21D;37392;50.964;6.952;2024-03-22T07:56:28;17.19;80.75
51305;HTU21D;37392;50.964;6.952;2024-03-22T07:58:53;17.62;79.25
51305;HTU21D;37392;50.964;6.952;2024-03-22T08:01:19;18.05;77.72
51305;HTU21D;37392;50.964;6.952;2024-03-22T08:03:44;18.35;76.51
51305;HTU21D;37392;50.964;6.952;2024-03-22T08:06:10;18.30;75.72
51305;HTU21D;37392;50.964;6.952;2024-03-22T08:08:35;18.38;75.91
51305;HTU21D;37392;50.964;6.952;2024-03-22T08:11:01;18.23;75.61
51305;HTU21D;37392;50.964;6.952;2024-03-22T08:13:26;17.91;76.57
51305;HTU21D;37392;50.964;6.952;2024-03-22T08:15:52;17.74;77.05
51305;HTU21D;37392;50.964;6.952;2024-03-22T08:18:18;17.80;77.19
51305;HTU21D;37392;50.964;6.952;2024-03-22T08:20:43;17.81;77.42
51305;HTU21D;37392;50.964;6.952;2024-03-22T08:23:09;17.91;77.17
51305;HTU21D;37392;50.964;6.952;2024-03-22T08:25:34;18.06;76.78
51305;HTU21D;37392;50.964;6.952;2024-03-22T08:28:00;18.81;75.58
51305;HTU21D;37392;50.964;6.952;2024-03-22T08:30:25;19.42;72.58
51305;HTU21D;37392;50.964;6.952;2024-03-22T08:32:57;19.92;70.64
51305;HTU21D;37392;50.964;6.952;2024-03-22T08:35:23;20.40;68.58
51305;HTU21D;37392;50.964;6.952;2024-03-22T08:37:48;20.64;67.23
51305;HTU21D;37392;50.964;6.952;2024-03-22T08:40:14;20.42;67.14
51305;HTU21D;37392;50.964;6.952;2024-03-22T08:42:40;20.26;67.49
51305;HTU21D;37392;50.964;6.952;2024-03-22T08:45:06;19.94;68.11
51305;HTU21D;37392;50.964;6.952;2024-03-22T08:47:32;19.68;68.87
51305;HTU21D;37392;50.964;6.952;2024-03-22T08:49:59;19.54;69.41
51305;HTU21D;37392;50.964;6.952;2024-03-22T08:52:25;19.28;70.12
51305;HTU21D;37392;50.964;6.952;2024-03-22T08:54:52;19.10;70.68
51305;HTU21D;37392;50.964;6.952;2024-03-22T08:57:17;19.18;70.45
51305;HTU21D;37392;50.964;6.952;2024-03-22T08:59:43;19.05;70.88
51305;HTU21D;37392;50.964;6.952;2024-03-22T09:02:09;18.80;71.15
51305;HTU21D;37392;50.964;6.952;2024-03-22T09:04:34;18.72;71.43
51305;HTU21D;37392;50.964;6.952;2024-03-22T09:07:00;18.82;71.13
51305;HTU21D;37392;50.964;6.952;2024-03-22T09:09:26;19.11;70.10
51305;HTU21D;37392;50.964;6.952;2024-03-22T09:11:51;19.66;68.94
51305;HTU21D;37392;50.964;6.952;2024-03-22T09:14:17;20.26;67.52
51305;HTU21D;37392;50.964;6.952;2024-03-22T09:16:42;21.05;65.09
51305;HTU21D;37392;50.964;6.952;2024-03-22T09:19:08;21.64;62.89
51305;HTU21D;37392;50.964;6.952;2024-03-22T09:21:33;21.85;61.21
51305;HTU21D;37392;50.964;6.952;2024-03-22T09:23:59;22.25;60.50
51305;HTU21D;37392;50.964;6.952;2024-03-22T09:26:24;22.38;59.69
51305;HTU21D;37392;50.964;6.952;2024-03-22T09:28:50;22.33;59.11
51305;HTU21D;37392;50.964;6.952;2024-03-22T09:31:16;22.16;59.50
51305;HTU21D;37392;50.964;6.952;2024-03-22T09:33:42;22.50;59.01
51305;HTU21D;37392;50.964;6.952;2024-03-22T09:36:07;22.26;58.51
51305;HTU21D;37392;50.964;6.952;2024-03-22T09:38:33;22.34;58.64
51305;HTU21D;37392;50.964;6.952;2024-03-22T09:40:59;22.41;58.51
51305;HTU21D;37392;50.964;6.952;2024-03-22T09:43:29;22.68;57.67
51305;HTU21D;37392;50.964;6.952;2024-03-22T09:45:57;23.05;56.60
51305;HTU21D;37392;50.964;6.952;2024-03-22T09:48:23;23.28;56.55
51305;HTU21D;37392;50.964;6.952;2024-03-22T09:50:49;23.44;55.74
51305;HTU21D;37392;50.964;6.952;2024-03-22T09:53:20;24.02;54.53
51305;HTU21D;37392;50.964;6.952;2024-03-22T09:55:47;24.59;52.92
51305;HTU21D;37392;50.964;6.952;2024-03-22T09:58:14;24.83;52.60
51305;HTU21D;37392;50.964;6.952;2024-03-22T10:00:40;24.68;51.48
51305;HTU21D;37392;50.964;6.952;2024-03-22T10:03:06;24.55;51.79
51305;HTU21D;37392;50.964;6.952;2024-03-22T10:05:33;23.74;53.09
51305;HTU21D;37392;50.964;6.952;2024-03-22T10:07:58;23.71;53.63
51305;HTU21D;37392;50.964;6.952;2024-03-22T10:10:24;23.65;54.07
51305;HTU21D;37392;50.964;6.952;2024-03-22T10:12:50;23.30;54.42
51305;HTU21D;37392;50.964;6.952;2024-03-22T10:15:18;23.00;55.12
51305;HTU21D;37392;50.964;6.952;2024-03-22T10:17:45;23.06;55.24
51305;HTU21D;37392;50.964;6.952;2024-03-22T10:20:13;23.11;55.21
51305;HTU21D;37392;50.964;6.952;2024-03-22T10:23:08;22.98;55.41
51305;HTU21D;37392;50.964;6.952;2024-03-22T10:25:34;22.72;56.42
51305;HTU21D;37392;50.964;6.952;2024-03-22T10:27:59;22.60;56.15
51305;HTU21D;37392;50.964;6.952;2024-03-22T10:30:25;22.26;56.49
51305;HTU21D;37392;50.964;6.952;2024-03-22T10:32:51;22.32;56.91
51305;HTU21D;37392;50.964;6.952;2024-03-22T10:35:17;22.46;57.15
51305;HTU21D;37392;50.964;6.952;2024-03-22T10:37:44;22.26;57.33
51305;HTU21D;37392;50.964;6.952;2024-03-22T10:40:10;22.23;57.40
51305;HTU21D;37392;50.964;6.952;2024-03-22T10:42:37;22.32;57.90
51305;HTU21D;37392;50.964;6.952;2024-03-22T10:45:05;22.37;57.23
51305;HTU21D;37392;50.964;6.952;2024-03-22T10:47:34;22.46;56.98
51305;HTU21D;37392;50.964;6.952;2024-03-22T10:50:10;22.49;57.58
51305;HTU21D;37392;50.964;6.952;2024-03-22T10:52:47;22.44;57.12
51305;HTU21D;37392;50.964;6.952;2024-03-22T10:55:19;22.53;57.26
51305;HTU21D;37392;50.964;6.952;2024-03-22T10:57:53;22.65;57.18
51305;HTU21D;37392;50.964;6.952;2024-03-22T11:00:32;22.78;56.52
51305;HTU21D;37392;50.964;6.952;2024-03-22T11:03:01;22.76;56.74
51305;HTU21D;37392;50.964;6.952;2024-03-22T11:05:28;22.72;56.79
51305;HTU21D;37392;50.964;6.952;2024-03-22T11:08:03;22.52;56.94
51305;HTU21D;37392;50.964;6.952;2024-03-22T11:10:34;22.36;57.67
51305;HTU21D;37392;50.964;6.952;2024-03-22T11:13:06;21.85;58.21
51305;HTU21D;37392;50.964;6.952;2024-03-22T11:15:33;21.45;58.82
51305;HTU21D;37392;50.964;6.952;2024-03-22T11:17:59;21.33;59.33
51305;HTU21D;37392;50.964;6.952;2024-03-22T11:20:25;21.13;60.20
51305;HTU21D;37392;50.964;6.952;2024-03-22T11:22:51;21.04;60.47
51305;HTU21D;37392;50.964;6.952;2024-03-22T11:25:18;21.04;60.76
51305;HTU21D;37392;50.964;6.952;2024-03-22T11:27:45;20.92;61.18
51305;HTU21D;37392;50.964;6.952;2024-03-22T11:30:11;20.99;61.60
51305;HTU21D;37392;50.964;6.952;2024-03-22T11:32:37;21.11;61.52
51305;HTU21D;37392;50.964;6.952;2024-03-22T11:35:11;20.96;62.06
51305;HTU21D;37392;50.964;6.952;2024-03-22T11:37:41;21.25;61.73
51305;HTU21D;37392;50.964;6.952;2024-03-22T11:40:11;21.32;61.15
51305;HTU21D;37392;50.964;6.952;2024-03-22T11:42:38;21.39;60.93
51305;HTU21D;37392;50.964;6.952;2024-03-22T11:45:05;21.62;60.64
51305;HTU21D;37392;50.964;6.952;2024-03-22T11:47:33;21.76;60.08
51305;HTU21D;37392;50.964;6.952;2024-03-22T11:49:59;21.77;59.80
51305;HTU21D;37392;50.964;6.952;2024-03-22T11:52:25;21.93;59.96
51305;HTU21D;37392;50.964;6.952;2024-03-22T11:54:52;22.03;59.70
51305;HTU21D;37392;50.964;6.952;2024-03-22T11:57:18;22.08;59.54
51305;HTU21D;37392;50.964;6.952;2024-03-22T11:59:44;22.07;59.80
51305;HTU21D;37392;50.964;6.952;2024-03-22T12:02:10;21.70;60.00
51305;HTU21D;37392;50.964;6.952;2024-03-22T12:04:35;21.45;60.78
51305;HTU21D;37392;50.964;6.952;2024-03-22T12:07:01;21.49;60.67
51305;HTU21D;37392;50.964;6.952;2024-03-22T12:09:26;21.62;60.22
51305;HTU21D;37392;50.964;6.952;2024-03-22T12:11:55;21.45;60.30
51305;HTU21D;37392;50.964;6.952;2024-03-22T12:14:20;21.27;61.10
51305;HTU21D;37392;50.964;6.952;2024-03-22T12:16:46;21.21;61.27
51305;HTU21D;37392;50.964;6.952;2024-03-22T12:19:12;21.20;60.57
51305;HTU21D;37392;50.964;6.952;2024-03-22T12:21:37;21.17;61.30
51305;HTU21D;37392;50.964;6.952;2024-03-22T12:24:03;21.01;60.47
51305;HTU21D;37392;50.964;6.952;2024-03-22T12:26:29;20.69;61.22
51305;HTU21D;37392;50.964;6.952;2024-03-22T12:28:56;20.37;61.54
51305;HTU21D;37392;50.964;6.952;2024-03-22T12:31:23;20.30;61.86
51305;HTU21D;37392;50.964;6.952;2024-03-22T12:33:48;20.25;62.12
51305;HTU21D;37392;50.964;6.952;2024-03-22T12:36:14;20.50;61.63
51305;HTU21D;37392;50.964;6.952;2024-03-22T12:38:39;20.43;61.53
51305;HTU21D;37392;50.964;6.952;2024-03-22T12:41:05;20.40;61.66
51305;HTU21D;37392;50.964;6.952;2024-03-22T12:43:31;20.30;61.97
51305;HTU21D;37392;50.964;6.952;2024-03-22T12:45:56;20.06;62.66
51305;HTU21D;37392;50.964;6.952;2024-03-22T12:48:22;19.94;63.04
51305;HTU21D;37392;50.964;6.952;2024-03-22T12:50:47;19.97;62.44
51305;HTU21D;37392;50.964;6.952;2024-03-22T12:53:13;20.01;61.59
51305;HTU21D;37392;50.964;6.952;2024-03-22T12:55:38;19.77;61.33
51305;HTU21D;37392;50.964;6.952;2024-03-22T12:58:04;19.83;61.92
51305;HTU21D;37392;50.964;6.952;2024-03-22T13:00:29;20.00;62.90
51305;HTU21D;37392;50.964;6.952;2024-03-22T13:02:55;20.13;63.08
51305;HTU21D;37392;50.964;6.952;2024-03-22T13:05:21;20.28;62.86
51305;HTU21D;37392;50.964;6.952;2024-03-22T13:07:46;20.41;62.53
51305;HTU21D;37392;50.964;6.952;2024-03-22T13:10:12;20.46;62.06
51305;HTU21D;37392;50.964;6.952;2024-03-22T13:12:37;20.37;62.41
51305;HTU21D;37392;50.964;6.952;2024-03-22T13:15:04;20.40;62.41
51305;HTU21D;37392;50.964;6.952;2024-03-22T13:17:29;20.51;62.31
51305;HTU21D;37392;50.964;6.952;2024-03-22T13:19:55;20.72;61.05
51305;HTU21D;37392;50.964;6.952;2024-03-22T13:22:21;20.91;59.86
51305;HTU21D;37392;50.964;6.952;2024-03-22T13:24:47;20.88;60.04
51305;HTU21D;37392;50.964;6.952;2024-03-22T13:27:13;20.71;59.83
51305;HTU21D;37392;50.964;6.952;2024-03-22T13:29:39;20.64;60.09
51305;HTU21D;37392;50.964;6.952;2024-03-22T13:32:05;20.29;61.07
51305;HTU21D;37392;50.964;6.952;2024-03-22T13:34:36;20.35;61.37
51305;HTU21D;37392;50.964;6.952;2024-03-22T13:37:04;20.26;60.44
51305;HTU21D;37392;50.964;6.952;2024-03-22T13:39:31;20.29;60.47
51305;HTU21D;37392;50.964;6.952;2024-03-22T13:41:57;20.35;60.18
51305;HTU21D;37392;50.964;6.952;2024-03-22T13:44:23;20.44;59.80
51305;HTU21D;37392;50.964;6.952;2024-03-22T13:46:50;20.51;59.32
51305;HTU21D;37392;50.964;6.952;2024-03-22T13:49:17;20.64;59.30
51305;HTU21D;37392;50.964;6.952;2024-03-22T13:51:47;20.54;59.12
51305;HTU21D;37392;50.964;6.952;2024-03-22T13:54:13;20.64;59.54
51305;HTU21D;37392;50.964;6.952;2024-03-22T13:56:39;20.73;59.53
51305;HTU21D;37392;50.964;6.952;2024-03-22T13:59:05;20.73;59.54
51305;HTU21D;37392;50.964;6.952;2024-03-22T14:01:32;20.74;59.74
51305;HTU21D;37392;50.964;6.952;2024-03-22T14:03:57;20.78;59.61
51305;HTU21D;37392;50.964;6.952;2024-03-22T14:06:23;20.88;59.99
51305;HTU21D;37392;50.964;6.952;2024-03-22T14:08:48;20.66;60.57
51305;HTU21D;37392;50.964;6.952;2024-03-22T14:11:14;20.69;60.32
51305;HTU21D;37392;50.964;6.952;2024-03-22T14:13:39;20.87;60.34
51305;HTU21D;37392;50.964;6.952;2024-03-22T14:16:05;20.92;59.94
51305;HTU21D;37392;50.964;6.952;2024-03-22T14:18:32;20.92;59.60
51305;HTU21D;37392;50.964;6.952;2024-03-22T14:20:58;20.75;60.16
51305;HTU21D;37392;50.964;6.952;2024-03-22T14:23:23;20.55;60.23
51305;HTU21D;37392;50.964;6.952;2024-03-22T14:25:49;20.50;60.86
51305;HTU21D;37392;50.964;6.952;2024-03-22T14:28:15;20.42;60.82
51305;HTU21D;37392;50.964;6.952;2024-03-22T14:30:41;20.37;60.89
51305;HTU21D;37392;50.964;6.952;2024-03-22T14:33:07;20.03;61.69
51305;HTU21D;37392;50.964;6.952;2024-03-22T14:35:32;20.00;62.08
51305;HTU21D;37392;50.964;6.952;2024-03-22T14:37:57;19.84;62.25
51305;HTU21D;37392;50.964;6.952;2024-03-22T14:40:23;19.88;62.96
51305;HTU21D;37392;50.964;6.952;2024-03-22T14:42:48;19.96;62.91
51305;HTU21D;37392;50.964;6.952;2024-03-22T14:45:14;19.98;62.22
51305;HTU21D;37392;50.964;6.952;2024-03-22T14:47:46;19.96;62.76
51305;HTU21D;37392;50.964;6.952;2024-03-22T14:50:11;20.04;62.70
51305;HTU21D;37392;50.964;6.952;2024-03-22T14:52:37;20.09;62.91
51305;HTU21D;37392;50.964;6.952;2024-03-22T14:55:03;20.18;62.52
51305;HTU21D;37392;50.964;6.952;2024-03-22T14:57:29;19.92;63.22
51305;HTU21D;37392;50.964;6.952;2024-03-22T14:59:55;19.86;63.73
51305;HTU21D;37392;50.964;6.952;2024-03-22T15:02:23;19.59;64.58
51305;HTU21D;37392;50.964;6.952;2024-03-22T15:04:48;19.41;66.07